sensor_id;sensor_type;location;lat;lon;timestamp;P1;durP1;ratioP1;P2;durP2;ratioP2
8036;SDS011;4061;51.360;7.340;2023-02-01T00:00:15;22.33;;;6.00;;
8036;SDS011;4061;51.360;7.340;2023-02-01T00:02:42;10.63;;;5.40;;
8036;SDS011;4061;51.360;7.340;2023-02-01T00:05:09;16.30;;;4.67;;
8036;SDS011;4061;51.360;7.340;2023-02-01T00:07:38;16.20;;;5.03;;
8036;SDS011;4061;51.360;7.340;2023-02-01T00:10:06;7.43;;;4.50;;
8036;SDS011;4061;51.360;7.340;2023-02-01T00:12:33;25.27;;;5.20;;
8036;SDS011;4061;51.360;7.340;2023-02-01T00:15:00;15.57;;;5.50;;
8036;SDS011;4061;51.360;7.340;2023-02-01T00:17:28;11.90;;;4.20;;
8036;SDS011;4061;51.360;7.340;2023-02-01T00:19:55;13.90;;;3.53;;
8036;SDS011;4061;51.360;7.340;2023-02-01T00:22:22;11.20;;;3.63;;
8036;SDS011;4061;51.360;7.340;2023-02-01T00:24:50;16.10;;;3.70;;
8036;SDS011;4061;51.360;7.340;2023-02-01T00:27:18;15.37;;;3.67;;
8036;SDS011;4061;51.360;7.340;2023-02-01T00:29:46;18.47;;;3.80;;
8036;SDS011;4061;51.360;7.340;2023-02-01T00:32:13;12.77;;;2.60;;
8036;SDS011;4061;51.360;7.340;2023-02-01T00:34:40;4.10;;;2.73;;
8036;SDS011;4061;51.360;7.340;2023-02-01T00:37:08;10.10;;;3.10;;
8036;SDS011;4061;51.360;7.340;2023-02-01T00:39:35;5.53;;;2.53;;
8036;SDS011;4061;51.360;7.340;2023-02-01T00:42:03;10.77;;;3.20;;
8036;SDS011;4061;51.360;7.340;2023-02-01T00:44:31;18.13;;;2.60;;
8036;SDS011;4061;51.360;7.340;2023-02-01T00:47:00;10.90;;;2.43;;
8036;SDS011;4061;51.360;7.340;2023-02-01T00:49:27;8.17;;;2.13;;
8036;SDS011;4061;51.360;7.340;2023-02-01T00:51:55;12.40;;;2.30;;
8036;SDS011;4061;51.360;7.340;2023-02-01T00:54:22;7.33;;;2.00;;
8036;SDS011;4061;51.360;7.340;2023-02-01T00:56:49;4.07;;;1.70;;
8036;SDS011;4061;51.360;7.340;2023-02-01T00:59:18;13.73;;;2.30;;
8036;SDS011;4061;51.360;7.340;2023-02-01T01:01:45;6.37;;;2.27;;
8036;SDS011;4061;51.360;7.340;2023-02-01T01:04:12;12.10;;;2.40;;
8036;SDS011;4061;51.360;7.340;2023-02-01T01:06:39;9.30;;;2.03;;
8036;SDS011;4061;51.360;7.340;2023-02-01T01:09:07;8.23;;;2.83;;
8036;SDS011;4061;51.360;7.340;2023-02-01T01:11:35;14.43;;;2.07;;
8036;SDS011;4061;51.360;7.340;2023-02-01T01:14:03;3.13;;;2.07;;
8036;SDS011;4061;51.360;7.340;2023-02-01T01:16:32;5.07;;;2.13;;
8036;SDS011;4061;51.360;7.340;2023-02-01T01:18:59;10.70;;;3.13;;
8036;SDS011;4061;51.360;7.340;2023-02-01T01:21:27;7.60;;;1.93;;
8036;SDS011;4061;51.360;7.340;2023-02-01T01:23:54;8.37;;;2.40;;
8036;SDS011;4061;51.360;7.340;2023-02-01T01:26:22;8.57;;;2.83;;
8036;SDS011;4061;51.360;7.340;2023-02-01T01:28:50;14.33;;;2.80;;
8036;SDS011;4061;51.360;7.340;2023-02-01T01:31:17;5.53;;;2.00;;
8036;SDS011;4061;51.360;7.340;2023-02-01T01:33:48;7.47;;;3.10;;
8036;SDS011;4061;51.360;7.340;2023-02-01T01:36:16;11.73;;;3.83;;
8036;SDS011;4061;51.360;7.340;2023-02-01T01:38:43;8.43;;;4.17;;
8036;SDS011;4061;51.360;7.340;2023-02-01T01:41:12;15.33;;;3.97;;
8036;SDS011;4061;51.360;7.340;2023-02-01T01:43:47;8.00;;;2.67;;
8036;SDS011;4061;51.360;7.340;2023-02-01T01:46:15;11.10;;;3.00;;
8036;SDS011;4061;51.360;7.340;2023-02-01T01:48:42;17.63;;;4.23;;
8036;SDS011;4061;51.360;7.340;2023-02-01T01:51:11;12.97;;;2.50;;
8036;SDS011;4061;51.360;7.340;2023-02-01T01:53:41;10.13;;;3.90;;
8036;SDS011;4061;51.360;7.340;2023-02-01T01:56:10;17.10;;;3.70;;
8036;SDS011;4061;51.360;7.340;2023-02-01T01:58:37;16.97;;;3.40;;
8036;SDS011;4061;51.360;7.340;2023-02-01T02:01:04;14.97;;;3.50;;
8036;SDS011;4061;51.360;7.340;2023-02-01T02:03:32;7.93;;;3.03;;
8036;SDS011;4061;51.360;7.340;2023-02-01T02:06:00;10.87;;;3.30;;
8036;SDS011;4061;51.360;7.340;2023-02-01T02:08:30;11.50;;;2.90;;
8036;SDS011;4061;51.360;7.340;2023-02-01T02:10:57;15.13;;;3.27;;
8036;SDS011;4061;51.360;7.340;2023-02-01T02:13:27;11.10;;;3.27;;
8036;SDS011;4061;51.360;7.340;2023-02-01T02:15:59;6.60;;;2.93;;
8036;SDS011;4061;51.360;7.340;2023-02-01T02:18:32;11.97;;;3.73;;
8036;SDS011;4061;51.360;7.340;2023-02-01T02:21:10;12.17;;;2.03;;
8036;SDS011;4061;51.360;7.340;2023-02-01T02:23:50;7.50;;;2.13;;
8036;SDS011;4061;51.360;7.340;2023-02-01T02:26:30;9.40;;;2.07;;
8036;SDS011;4061;51.360;7.340;2023-02-01T02:34:37;9.73;;;2.57;;
8036;SDS011;4061;51.360;7.340;2023-02-01T02:37:09;8.17;;;2.20;;
8036;SDS011;4061;51.360;7.340;2023-02-01T02:39:42;11.13;;;2.20;;
8036;SDS011;4061;51.360;7.340;2023-02-01T02:42:16;6.20;;;1.70;;
8036;SDS011;4061;51.360;7.340;2023-02-01T02:45:03;8.73;;;2.10;;
8036;SDS011;4061;51.360;7.340;2023-02-01T02:47:50;10.03;;;2.53;;
8036;SDS011;4061;51.360;7.340;2023-02-01T02:50:23;6.60;;;1.73;;
8036;SDS011;4061;51.360;7.340;2023-02-01T02:53:10;8.60;;;1.73;;
8036;SDS011;4061;51.360;7.340;2023-02-01T02:55:57;7.00;;;1.67;;
8036;SDS011;4061;51.360;7.340;2023-02-01T02:58:43;6.37;;;1.27;;
8036;SDS011;4061;51.360;7.340;2023-02-01T03:01:29;7.87;;;1.23;;
8036;SDS011;4061;51.360;7.340;2023-02-01T03:04:14;3.13;;;1.20;;
8036;SDS011;4061;51.360;7.340;2023-02-01T03:06:44;15.50;;;2.00;;
8036;SDS011;4061;51.360;7.340;2023-02-01T03:09:13;5.40;;;1.37;;
8036;SDS011;4061;51.360;7.340;2023-02-01T03:11:41;5.33;;;1.40;;
8036;SDS011;4061;51.360;7.340;2023-02-01T03:14:27;9.17;;;1.87;;
8036;SDS011;4061;51.360;7.340;2023-02-01T03:16:57;7.63;;;1.77;;
8036;SDS011;4061;51.360;7.340;2023-02-01T03:19:27;5.73;;;1.37;;
8036;SDS011;4061;51.360;7.340;2023-02-01T03:21:57;8.50;;;1.97;;
8036;SDS011;4061;51.360;7.340;2023-02-01T03:24:27;13.17;;;1.50;;
8036;SDS011;4061;51.360;7.340;2023-02-01T03:27:00;12.80;;;1.73;;
8036;SDS011;4061;51.360;7.340;2023-02-01T03:29:29;10.57;;;2.00;;
8036;SDS011;4061;51.360;7.340;2023-02-01T03:31:57;10.17;;;1.97;;
8036;SDS011;4061;51.360;7.340;2023-02-01T03:34:25;3.73;;;1.63;;
8036;SDS011;4061;51.360;7.340;2023-02-01T03:36:54;5.87;;;1.67;;
8036;SDS011;4061;51.360;7.340;2023-02-01T03:39:27;10.50;;;1.97;;
8036;SDS011;4061;51.360;7.340;2023-02-01T03:41:57;6.13;;;1.90;;
8036;SDS011;4061;51.360;7.340;2023-02-01T03:44:26;5.60;;;1.93;;
8036;SDS011;4061;51.360;7.340;2023-02-01T03:46:56;5.47;;;0.93;;
8036;SDS011;4061;51.360;7.340;2023-02-01T03:49:25;14.60;;;1.87;;
8036;SDS011;4061;51.360;7.340;2023-02-01T03:51:53;6.37;;;1.43;;
8036;SDS011;4061;51.360;7.340;2023-02-01T03:54:21;7.40;;;1.80;;
8036;SDS011;4061;51.360;7.340;2023-02-01T03:56:50;16.57;;;1.67;;
8036;SDS011;4061;51.360;7.340;2023-02-01T03:59:19;8.57;;;1.57;;
8036;SDS011;4061;51.360;7.340;2023-02-01T04:01:46;10.57;;;2.07;;
8036;SDS011;4061;51.360;7.340;2023-02-01T04:04:13;15.17;;;1.63;;
8036;SDS011;4061;51.360;7.340;2023-02-01T04:06:44;11.50;;;1.60;;
8036;SDS011;4061;51.360;7.340;2023-02-01T04:09:12;7.60;;;1.83;;
8036;SDS011;4061;51.360;7.340;2023-02-01T04:11:39;9.73;;;1.40;;
8036;SDS011;4061;51.360;7.340;2023-02-01T04:14:07;6.13;;;0.83;;
8036;SDS011;4061;51.360;7.340;2023-02-01T04:16:35;7.13;;;1.27;;
8036;SDS011;4061;51.360;7.340;2023-02-01T04:19:02;6.80;;;1.70;;
8036;SDS011;4061;51.360;7.340;2023-02-01T04:21:29;7.63;;;1.43;;
8036;SDS011;4061;51.360;7.340;2023-02-01T04:23:56;7.33;;;1.47;;
8036;SDS011;4061;51.360;7.340;2023-02-01T04:26:23;13.83;;;2.27;;
8036;SDS011;4061;51.360;7.340;2023-02-01T04:28:51;7.17;;;1.40;;
8036;SDS011;4061;51.360;7.340;2023-02-01T04:31:20;15.10;;;2.00;;
8036;SDS011;4061;51.360;7.340;2023-02-01T04:33:50;7.40;;;2.03;;
8036;SDS011;4061;51.360;7.340;2023-02-01T04:36:18;9.63;;;1.50;;
8036;SDS011;4061;51.360;7.340;2023-02-01T04:38:46;14.17;;;1.80;;
8036;SDS011;4061;51.360;7.340;2023-02-01T04:41:14;7.40;;;1.47;;
8036;SDS011;4061;51.360;7.340;2023-02-01T04:43:43;7.30;;;1.43;;
8036;SDS011;4061;51.360;7.340;2023-02-01T04:46:10;12.20;;;2.73;;
8036;SDS011;4061;51.360;7.340;2023-02-01T04:48:39;20.17;;;1.77;;
8036;SDS011;4061;51.360;7.340;2023-02-01T04:51:07;6.40;;;1.70;;
8036;SDS011;4061;51.360;7.340;2023-02-01T04:53:34;5.57;;;1.80;;
8036;SDS011;4061;51.360;7.340;2023-02-01T04:56:02;10.80;;;2.23;;
8036;SDS011;4061;51.360;7.340;2023-02-01T04:58:29;19.77;;;1.93;;
8036;SDS011;4061;51.360;7.340;2023-02-01T05:00:56;13.27;;;2.00;;
8036;SDS011;4061;51.360;7.340;2023-02-01T05:03:23;11.87;;;1.53;;
8036;SDS011;4061;51.360;7.340;2023-02-01T05:05:52;16.80;;;2.67;;
8036;SDS011;4061;51.360;7.340;2023-02-01T05:08:19;11.03;;;1.80;;
8036;SDS011;4061;51.360;7.340;2023-02-01T05:10:47;10.57;;;1.97;;
8036;SDS011;4061;51.360;7.340;2023-02-01T05:13:14;17.07;;;2.20;;
8036;SDS011;4061;51.360;7.340;2023-02-01T05:15:59;6.70;;;1.53;;
8036;SDS011;4061;51.360;7.340;2023-02-01T05:18:26;10.07;;;1.90;;
8036;SDS011;4061;51.360;7.340;2023-02-01T05:20:56;12.77;;;2.07;;
8036;SDS011;4061;51.360;7.340;2023-02-01T05:23:23;9.67;;;1.93;;
8036;SDS011;4061;51.360;7.340;2023-02-01T05:25:50;15.43;;;2.40;;
8036;SDS011;4061;51.360;7.340;2023-02-01T05:28:17;4.67;;;1.47;;
8036;SDS011;4061;51.360;7.340;2023-02-01T05:30:45;8.37;;;1.73;;
8036;SDS011;4061;51.360;7.340;2023-02-01T05:33:12;7.80;;;2.53;;
8036;SDS011;4061;51.360;7.340;2023-02-01T05:35:39;12.57;;;2.27;;
8036;SDS011;4061;51.360;7.340;2023-02-01T05:38:07;9.50;;;2.10;;
8036;SDS011;4061;51.360;7.340;2023-02-01T05:40:34;10.37;;;2.50;;
8036;SDS011;4061;51.360;7.340;2023-02-01T05:43:02;10.47;;;1.93;;
8036;SDS011;4061;51.360;7.340;2023-02-01T05:45:29;8.17;;;1.70;;
8036;SDS011;4061;51.360;7.340;2023-02-01T05:47:56;5.00;;;1.40;;
8036;SDS011;4061;51.360;7.340;2023-02-01T05:50:23;12.40;;;2.77;;
8036;SDS011;4061;51.360;7.340;2023-02-01T05:52:50;4.37;;;1.60;;
8036;SDS011;4061;51.360;7.340;2023-02-01T05:55:19;15.47;;;1.87;;
8036;SDS011;4061;51.360;7.340;2023-02-01T05:57:46;11.53;;;1.83;;
8036;SDS011;4061;51.360;7.340;2023-02-01T06:00:13;14.03;;;2.17;;
8036;SDS011;4061;51.360;7.340;2023-02-01T06:02:40;16.47;;;2.00;;
8036;SDS011;4061;51.360;7.340;2023-02-01T06:05:08;19.90;;;2.70;;
8036;SDS011;4061;51.360;7.340;2023-02-01T06:07:36;13.07;;;2.40;;
8036;SDS011;4061;51.360;7.340;2023-02-01T06:10:03;7.67;;;1.57;;
8036;SDS011;4061;51.360;7.340;2023-02-01T06:12:32;9.77;;;1.97;;
8036;SDS011;4061;51.360;7.340;2023-02-01T06:14:59;11.73;;;2.00;;
8036;SDS011;4061;51.360;7.340;2023-02-01T06:17:26;15.90;;;1.97;;
8036;SDS011;4061;51.360;7.340;2023-02-01T06:19:53;22.30;;;2.03;;
8036;SDS011;4061;51.360;7.340;2023-02-01T06:22:20;9.23;;;1.60;;
8036;SDS011;4061;51.360;7.340;2023-02-01T06:24:48;11.87;;;2.17;;
8036;SDS011;4061;51.360;7.340;2023-02-01T06:27:15;7.47;;;1.63;;
8036;SDS011;4061;51.360;7.340;2023-02-01T06:29:43;20.27;;;2.90;;
8036;SDS011;4061;51.360;7.340;2023-02-01T06:32:11;9.23;;;2.47;;
8036;SDS011;4061;51.360;7.340;2023-02-01T06:34:38;9.47;;;2.13;;
8036;SDS011;4061;51.360;7.340;2023-02-01T06:37:05;5.37;;;2.20;;
8036;SDS011;4061;51.360;7.340;2023-02-01T06:39:32;10.67;;;2.53;;
8036;SDS011;4061;51.360;7.340;2023-02-01T06:42:00;15.67;;;2.17;;
8036;SDS011;4061;51.360;7.340;2023-02-01T06:44:27;12.00;;;2.20;;
8036;SDS011;4061;51.360;7.340;2023-02-01T06:46:55;5.37;;;2.10;;
8036;SDS011;4061;51.360;7.340;2023-02-01T06:49:22;4.30;;;1.93;;
8036;SDS011;4061;51.360;7.340;2023-02-01T06:51:50;6.10;;;1.33;;
8036;SDS011;4061;51.360;7.340;2023-02-01T06:54:17;10.63;;;3.00;;
8036;SDS011;4061;51.360;7.340;2023-02-01T06:56:44;7.70;;;2.10;;
8036;SDS011;4061;51.360;7.340;2023-02-01T06:59:11;17.33;;;2.17;;
8036;SDS011;4061;51.360;7.340;2023-02-01T07:01:38;24.90;;;2.80;;
8036;SDS011;4061;51.360;7.340;2023-02-01T07:04:08;10.67;;;1.93;;
8036;SDS011;4061;51.360;7.340;2023-02-01T07:06:36;11.70;;;1.97;;
8036;SDS011;4061;51.360;7.340;2023-02-01T07:09:03;6.77;;;2.00;;
8036;SDS011;4061;51.360;7.340;2023-02-01T07:11:31;6.20;;;1.73;;
8036;SDS011;4061;51.360;7.340;2023-02-01T07:13:58;11.20;;;1.30;;
8036;SDS011;4061;51.360;7.340;2023-02-01T07:16:25;12.13;;;2.07;;
8036;SDS011;4061;51.360;7.340;2023-02-01T07:18:54;13.17;;;1.70;;
8036;SDS011;4061;51.360;7.340;2023-02-01T07:21:22;23.50;;;1.60;;
8036;SDS011;4061;51.360;7.340;2023-02-01T07:23:49;6.70;;;2.03;;
8036;SDS011;4061;51.360;7.340;2023-02-01T07:26:16;16.90;;;2.47;;
8036;SDS011;4061;51.360;7.340;2023-02-01T07:28:44;5.67;;;1.37;;
8036;SDS011;4061;51.360;7.340;2023-02-01T07:31:13;14.53;;;1.80;;
8036;SDS011;4061;51.360;7.340;2023-02-01T07:33:43;10.70;;;2.20;;
8036;SDS011;4061;51.360;7.340;2023-02-01T07:36:11;6.53;;;1.90;;
8036;SDS011;4061;51.360;7.340;2023-02-01T07:38:40;8.27;;;2.03;;
8036;SDS011;4061;51.360;7.340;2023-02-01T07:41:07;9.47;;;1.83;;
8036;SDS011;4061;51.360;7.340;2023-02-01T07:43:34;11.10;;;1.83;;
8036;SDS011;4061;51.360;7.340;2023-02-01T07:46:02;13.77;;;2.70;;
8036;SDS011;4061;51.360;7.340;2023-02-01T07:48:30;14.53;;;2.13;;
8036;SDS011;4061;51.360;7.340;2023-02-01T07:50:58;16.00;;;2.50;;
8036;SDS011;4061;51.360;7.340;2023-02-01T07:53:26;8.97;;;2.33;;
8036;SDS011;4061;51.360;7.340;2023-02-01T07:55:55;16.37;;;2.27;;
8036;SDS011;4061;51.360;7.340;2023-02-01T07:58:22;9.60;;;2.37;;
8036;SDS011;4061;51.360;7.340;2023-02-01T08:00:49;14.37;;;2.00;;
8036;SDS011;4061;51.360;7.340;2023-02-01T08:03:49;6.23;;;1.80;;
8036;SDS011;4061;51.360;7.340;2023-02-01T08:06:17;11.33;;;2.47;;
8036;SDS011;4061;51.360;7.340;2023-02-01T08:08:45;11.67;;;2.30;;
8036;SDS011;4061;51.360;7.340;2023-02-01T08:11:13;22.73;;;3.70;;
8036;SDS011;4061;51.360;7.340;2023-02-01T08:13:41;13.53;;;2.63;;
8036;SDS011;4061;51.360;7.340;2023-02-01T08:16:09;10.93;;;2.30;;
8036;SDS011;4061;51.360;7.340;2023-02-01T08:18:37;13.67;;;2.57;;
8036;SDS011;4061;51.360;7.340;2023-02-01T08:21:05;12.00;;;2.20;;
8036;SDS011;4061;51.360;7.340;2023-02-01T08:23:32;10.73;;;2.60;;
8036;SDS011;4061;51.360;7.340;2023-02-01T08:26:06;10.87;;;3.10;;
8036;SDS011;4061;51.360;7.340;2023-02-01T08:28:35;16.53;;;3.10;;
8036;SDS011;4061;51.360;7.340;2023-02-01T08:31:05;8.40;;;2.70;;
8036;SDS011;4061;51.360;7.340;2023-02-01T08:33:33;10.53;;;1.93;;
8036;SDS011;4061;51.360;7.340;2023-02-01T08:36:01;10.60;;;2.27;;
8036;SDS011;4061;51.360;7.340;2023-02-01T08:38:28;7.43;;;2.60;;
8036;SDS011;4061;51.360;7.340;2023-02-01T08:40:55;10.57;;;2.37;;
8036;SDS011;4061;51.360;7.340;2023-02-01T08:43:23;7.47;;;2.93;;
8036;SDS011;4061;51.360;7.340;2023-02-01T08:45:51;5.47;;;2.73;;
8036;SDS011;4061;51.360;7.340;2023-02-01T08:48:21;11.57;;;2.93;;
8036;SDS011;4061;51.360;7.340;2023-02-01T08:50:48;14.37;;;3.13;;
8036;SDS011;4061;51.360;7.340;2023-02-01T08:53:15;8.40;;;3.20;;
8036;SDS011;4061;51.360;7.340;2023-02-01T08:55:43;9.03;;;2.47;;
8036;SDS011;4061;51.360;7.340;2023-02-01T08:58:10;9.53;;;3.00;;
8036;SDS011;4061;51.360;7.340;2023-02-01T09:00:38;13.67;;;2.70;;
8036;SDS011;4061;51.360;7.340;2023-02-01T09:03:08;13.23;;;3.33;;
8036;SDS011;4061;51.360;7.340;2023-02-01T09:05:36;17.37;;;2.70;;
8036;SDS011;4061;51.360;7.340;2023-02-01T09:08:03;10.43;;;2.27;;
8036;SDS011;4061;51.360;7.340;2023-02-01T09:10:31;6.67;;;2.20;;
8036;SDS011;4061;51.360;7.340;2023-02-01T09:12:58;9.43;;;2.27;;
8036;SDS011;4061;51.360;7.340;2023-02-01T09:15:25;8.20;;;3.13;;
8036;SDS011;4061;51.360;7.340;2023-02-01T09:17:52;5.53;;;2.00;;
8036;SDS011;4061;51.360;7.340;2023-02-01T09:20:21;13.03;;;3.33;;
8036;SDS011;4061;51.360;7.340;2023-02-01T09:22:49;14.60;;;3.20;;
8036;SDS011;4061;51.360;7.340;2023-02-01T09:25:16;12.13;;;2.67;;
8036;SDS011;4061;51.360;7.340;2023-02-01T09:27:44;7.43;;;2.60;;
8036;SDS011;4061;51.360;7.340;2023-02-01T09:30:11;9.10;;;2.47;;
8036;SDS011;4061;51.360;7.340;2023-02-01T09:32:38;14.03;;;2.90;;
8036;SDS011;4061;51.360;7.340;2023-02-01T09:35:06;17.27;;;2.63;;
8036;SDS011;4061;51.360;7.340;2023-02-01T09:37:34;10.03;;;3.00;;
8036;SDS011;4061;51.360;7.340;2023-02-01T09:40:02;7.87;;;2.80;;
8036;SDS011;4061;51.360;7.340;2023-02-01T09:42:45;5.73;;;2.77;;
8036;SDS011;4061;51.360;7.340;2023-02-01T09:45:20;8.37;;;2.70;;
8036;SDS011;4061;51.360;7.340;2023-02-01T09:47:49;19.90;;;3.07;;
8036;SDS011;4061;51.360;7.340;2023-02-01T09:50:18;15.17;;;4.03;;
8036;SDS011;4061;51.360;7.340;2023-02-01T09:52:50;13.97;;;2.83;;
8036;SDS011;4061;51.360;7.340;2023-02-01T09:55:20;8.57;;;2.80;;
8036;SDS011;4061;51.360;7.340;2023-02-01T09:57:49;7.77;;;2.20;;
8036;SDS011;4061;51.360;7.340;2023-02-01T10:00:19;8.60;;;2.57;;
8036;SDS011;4061;51.360;7.340;2023-02-01T10:02:47;14.93;;;3.17;;
8036;SDS011;4061;51.360;7.340;2023-02-01T10:05:16;5.33;;;2.37;;
8036;SDS011;4061;51.360;7.340;2023-02-01T10:07:45;9.83;;;2.23;;
8036;SDS011;4061;51.360;7.340;2023-02-01T10:10:16;12.90;;;2.20;;
8036;SDS011;4061;51.360;7.340;2023-02-01T10:13:03;6.17;;;2.20;;
8036;SDS011;4061;51.360;7.340;2023-02-01T10:15:36;14.63;;;2.40;;
8036;SDS011;4061;51.360;7.340;2023-02-01T10:18:15;9.10;;;3.00;;
8036;SDS011;4061;51.360;7.340;2023-02-01T10:20:48;13.90;;;2.90;;
8036;SDS011;4061;51.360;7.340;2023-02-01T10:23:24;14.77;;;2.40;;
8036;SDS011;4061;51.360;7.340;2023-02-01T10:25:55;7.10;;;2.30;;
8036;SDS011;4061;51.360;7.340;2023-02-01T10:28:22;8.53;;;1.53;;
8036;SDS011;4061;51.360;7.340;2023-02-01T10:30:51;20.00;;;2.80;;
8036;SDS011;4061;51.360;7.340;2023-02-01T10:33:22;10.33;;;2.10;;
8036;SDS011;4061;51.360;7.340;2023-02-01T10:35:52;22.53;;;2.17;;
8036;SDS011;4061;51.360;7.340;2023-02-01T10:38:22;7.10;;;1.83;;
8036;SDS011;4061;51.360;7.340;2023-02-01T10:40:51;9.10;;;2.50;;
8036;SDS011;4061;51.360;7.340;2023-02-01T10:43:20;18.67;;;2.97;;
8036;SDS011;4061;51.360;7.340;2023-02-01T10:45:47;12.30;;;2.00;;
8036;SDS011;4061;51.360;7.340;2023-02-01T10:48:14;7.50;;;2.03;;
8036;SDS011;4061;51.360;7.340;2023-02-01T10:50:44;15.33;;;2.80;;
8036;SDS011;4061;51.360;7.340;2023-02-01T10:53:15;9.03;;;1.90;;
8036;SDS011;4061;51.360;7.340;2023-02-01T10:55:47;9.13;;;1.87;;
8036;SDS011;4061;51.360;7.340;2023-02-01T10:58:16;9.50;;;1.60;;
8036;SDS011;4061;51.360;7.340;2023-02-01T11:00:46;6.43;;;1.90;;
8036;SDS011;4061;51.360;7.340;2023-02-01T11:03:33;7.90;;;2.57;;
8036;SDS011;4061;51.360;7.340;2023-02-01T11:06:00;18.20;;;2.30;;
8036;SDS011;4061;51.360;7.340;2023-02-01T11:08:28;6.73;;;1.97;;
8036;SDS011;4061;51.360;7.340;2023-02-01T11:10:57;6.30;;;2.13;;
8036;SDS011;4061;51.360;7.340;2023-02-01T11:13:27;3.20;;;1.50;;
8036;SDS011;4061;51.360;7.340;2023-02-01T11:15:56;18.13;;;2.47;;
8036;SDS011;4061;51.360;7.340;2023-02-01T11:18:25;5.17;;;1.90;;
8036;SDS011;4061;51.360;7.340;2023-02-01T11:20:52;9.50;;;2.83;;
8036;SDS011;4061;51.360;7.340;2023-02-01T11:23:21;11.73;;;2.40;;
8036;SDS011;4061;51.360;7.340;2023-02-01T11:25:50;4.00;;;1.80;;
8036;SDS011;4061;51.360;7.340;2023-02-01T11:28:19;9.83;;;1.97;;
8036;SDS011;4061;51.360;7.340;2023-02-01T11:30:47;4.67;;;1.77;;
8036;SDS011;4061;51.360;7.340;2023-02-01T11:33:17;10.33;;;1.83;;
8036;SDS011;4061;51.360;7.340;2023-02-01T11:35:45;5.83;;;2.63;;
8036;SDS011;4061;51.360;7.340;2023-02-01T11:38:19;14.87;;;2.97;;
8036;SDS011;4061;51.360;7.340;2023-02-01T11:40:46;7.93;;;1.73;;
8036;SDS011;4061;51.360;7.340;2023-02-01T11:43:16;7.20;;;1.57;;
8036;SDS011;4061;51.360;7.340;2023-02-01T11:45:53;7.97;;;1.67;;
8036;SDS011;4061;51.360;7.340;2023-02-01T11:48:23;10.70;;;2.17;;
8036;SDS011;4061;51.360;7.340;2023-02-01T11:51:04;7.40;;;1.80;;
8036;SDS011;4061;51.360;7.340;2023-02-01T11:53:38;15.07;;;2.13;;
8036;SDS011;4061;51.360;7.340;2023-02-01T11:56:11;9.40;;;1.43;;
8036;SDS011;4061;51.360;7.340;2023-02-01T11:58:59;13.17;;;1.77;;
8036;SDS011;4061;51.360;7.340;2023-02-01T12:01:37;13.63;;;2.43;;
8036;SDS011;4061;51.360;7.340;2023-02-01T12:04:17;5.43;;;1.60;;
8036;SDS011;4061;51.360;7.340;2023-02-01T12:06:49;5.30;;;1.37;;
8036;SDS011;4061;51.360;7.340;2023-02-01T12:09:23;4.70;;;1.67;;
8036;SDS011;4061;51.360;7.340;2023-02-01T12:11:54;17.27;;;2.40;;
8036;SDS011;4061;51.360;7.340;2023-02-01T12:14:28;10.53;;;1.90;;
8036;SDS011;4061;51.360;7.340;2023-02-01T12:17:06;16.67;;;1.87;;
8036;SDS011;4061;51.360;7.340;2023-02-01T12:19:43;10.67;;;1.70;;
8036;SDS011;4061;51.360;7.340;2023-02-01T12:22:19;7.33;;;1.80;;
8036;SDS011;4061;51.360;7.340;2023-02-01T12:24:52;12.03;;;2.27;;
8036;SDS011;4061;51.360;7.340;2023-02-01T12:30:12;12.73;;;2.07;;
8036;SDS011;4061;51.360;7.340;2023-02-01T12:32:47;16.50;;;2.30;;
8036;SDS011;4061;51.360;7.340;2023-02-01T12:35:24;4.57;;;2.00;;
8036;SDS011;4061;51.360;7.340;2023-02-01T12:38:06;10.87;;;2.23;;
8036;SDS011;4061;51.360;7.340;2023-02-01T12:40:42;15.37;;;1.77;;
8036;SDS011;4061;51.360;7.340;2023-02-01T12:43:11;12.20;;;2.50;;
8036;SDS011;4061;51.360;7.340;2023-02-01T12:45:42;6.93;;;1.43;;
8036;SDS011;4061;51.360;7.340;2023-02-01T12:48:19;6.23;;;1.63;;
8036;SDS011;4061;51.360;7.340;2023-02-01T12:50:50;11.73;;;2.27;;
8036;SDS011;4061;51.360;7.340;2023-02-01T12:53:21;11.27;;;2.57;;
8036;SDS011;4061;51.360;7.340;2023-02-01T12:55:49;9.10;;;2.20;;
8036;SDS011;4061;51.360;7.340;2023-02-01T12:58:18;6.67;;;1.60;;
8036;SDS011;4061;51.360;7.340;2023-02-01T13:00:49;12.97;;;2.40;;
8036;SDS011;4061;51.360;7.340;2023-02-01T13:03:21;6.50;;;2.23;;
8036;SDS011;4061;51.360;7.340;2023-02-01T13:05:56;9.23;;;1.50;;
8036;SDS011;4061;51.360;7.340;2023-02-01T13:08:26;11.10;;;2.37;;
8036;SDS011;4061;51.360;7.340;2023-02-01T13:10:56;7.13;;;2.00;;
8036;SDS011;4061;51.360;7.340;2023-02-01T13:13:28;9.20;;;1.90;;
8036;SDS011;4061;51.360;7.340;2023-02-01T13:15:57;13.80;;;1.70;;
8036;SDS011;4061;51.360;7.340;2023-02-01T13:18:26;13.23;;;2.80;;
8036;SDS011;4061;51.360;7.340;2023-02-01T13:21:01;9.17;;;1.27;;
8036;SDS011;4061;51.360;7.340;2023-02-01T13:23:30;15.93;;;2.30;;
8036;SDS011;4061;51.360;7.340;2023-02-01T13:25:58;8.37;;;1.87;;
8036;SDS011;4061;51.360;7.340;2023-02-01T13:28:27;9.10;;;2.13;;
8036;SDS011;4061;51.360;7.340;2023-02-01T13:30:59;14.13;;;1.83;;
8036;SDS011;4061;51.360;7.340;2023-02-01T13:33:37;8.90;;;1.90;;
8036;SDS011;4061;51.360;7.340;2023-02-01T13:36:18;8.63;;;1.87;;
8036;SDS011;4061;51.360;7.340;2023-02-01T13:39:03;12.53;;;2.37;;
8036;SDS011;4061;51.360;7.340;2023-02-01T13:41:31;4.83;;;1.47;;
8036;SDS011;4061;51.360;7.340;2023-02-01T13:43:59;11.97;;;2.50;;
8036;SDS011;4061;51.360;7.340;2023-02-01T13:46:27;18.93;;;1.73;;
8036;SDS011;4061;51.360;7.340;2023-02-01T13:48:57;4.40;;;1.40;;
8036;SDS011;4061;51.360;7.340;2023-02-01T13:51:37;12.00;;;1.97;;
8036;SDS011;4061;51.360;7.340;2023-02-01T13:54:04;11.83;;;2.43;;
8036;SDS011;4061;51.360;7.340;2023-02-01T13:56:39;8.13;;;1.77;;
8036;SDS011;4061;51.360;7.340;2023-02-01T14:01:48;18.40;;;2.40;;
8036;SDS011;4061;51.360;7.340;2023-02-01T14:04:45;12.15;;;2.17;;
8036;SDS011;4061;51.360;7.340;2023-02-01T14:07:19;10.97;;;1.87;;
8036;SDS011;4061;51.360;7.340;2023-02-01T14:09:46;11.40;;;1.97;;
8036;SDS011;4061;51.360;7.340;2023-02-01T14:15:16;5.87;;;1.70;;
8036;SDS011;4061;51.360;7.340;2023-02-01T14:17:43;9.17;;;1.60;;
8036;SDS011;4061;51.360;7.340;2023-02-01T14:23:01;7.83;;;2.00;;
8036;SDS011;4061;51.360;7.340;2023-02-01T14:25:31;6.03;;;1.37;;
8036;SDS011;4061;51.360;7.340;2023-02-01T14:27:59;9.50;;;1.73;;
8036;SDS011;4061;51.360;7.340;2023-02-01T14:30:26;11.50;;;2.27;;
8036;SDS011;4061;51.360;7.340;2023-02-01T14:32:53;3.97;;;1.30;;
8036;SDS011;4061;51.360;7.340;2023-02-01T14:35:20;7.60;;;1.17;;
8036;SDS011;4061;51.360;7.340;2023-02-01T14:37:50;3.43;;;1.07;;
8036;SDS011;4061;51.360;7.340;2023-02-01T14:40:23;13.57;;;1.80;;
8036;SDS011;4061;51.360;7.340;2023-02-01T14:42:51;10.00;;;1.17;;
8036;SDS011;4061;51.360;7.340;2023-02-01T14:50:50;7.97;;;1.53;;
8036;SDS011;4061;51.360;7.340;2023-02-01T14:53:20;14.50;;;1.90;;
8036;SDS011;4061;51.360;7.340;2023-02-01T14:55:51;8.53;;;2.27;;
8036;SDS011;4061;51.360;7.340;2023-02-01T14:58:23;5.37;;;1.50;;
8036;SDS011;4061;51.360;7.340;2023-02-01T15:00:53;6.90;;;1.27;;
8036;SDS011;4061;51.360;7.340;2023-02-01T15:03:25;13.27;;;1.10;;
8036;SDS011;4061;51.360;7.340;2023-02-01T15:05:55;4.37;;;1.17;;
8036;SDS011;4061;51.360;7.340;2023-02-01T15:08:24;5.67;;;1.20;;
8036;SDS011;4061;51.360;7.340;2023-02-01T15:10:53;13.07;;;2.00;;
8036;SDS011;4061;51.360;7.340;2023-02-01T15:13:21;6.33;;;1.60;;
8036;SDS011;4061;51.360;7.340;2023-02-01T15:16:07;12.77;;;1.40;;
8036;SDS011;4061;51.360;7.340;2023-02-01T15:18:37;13.43;;;1.60;;
8036;SDS011;4061;51.360;7.340;2023-02-01T15:21:05;10.07;;;1.37;;
8036;SDS011;4061;51.360;7.340;2023-02-01T15:23:32;8.00;;;1.50;;
8036;SDS011;4061;51.360;7.340;2023-02-01T15:26:01;14.73;;;1.33;;
8036;SDS011;4061;51.360;7.340;2023-02-01T15:28:28;6.80;;;1.13;;
8036;SDS011;4061;51.360;7.340;2023-02-01T15:30:56;7.17;;;1.20;;
8036;SDS011;4061;51.360;7.340;2023-02-01T15:33:24;11.53;;;1.00;;
8036;SDS011;4061;51.360;7.340;2023-02-01T15:35:52;11.70;;;1.57;;
8036;SDS011;4061;51.360;7.340;2023-02-01T15:38:36;9.13;;;1.50;;
8036;SDS011;4061;51.360;7.340;2023-02-01T15:41:06;16.73;;;1.63;;
8036;SDS011;4061;51.360;7.340;2023-02-01T15:43:35;11.03;;;1.50;;
8036;SDS011;4061;51.360;7.340;2023-02-01T15:46:06;10.23;;;1.77;;